sensor_id;sensor_type;location;lat;lon;timestamp;P1;durP1;ratioP1;P2;durP2;ratioP2
6209;SDS011;3138;52.550;13.148;2023-05-07T00:00:31;26.17;;;18.53;;
6209;SDS011;3138;52.550;13.148;2023-05-07T00:02:58;26.20;;;17.83;;
6209;SDS011;3138;52.550;13.148;2023-05-07T00:05:26;26.70;;;18.00;;
6209;SDS011;3138;52.550;13.148;2023-05-07T00:07:53;23.87;;;17.30;;
6209;SDS011;3138;52.550;13.148;2023-05-07T00:10:31;25.80;;;16.70;;
6209;SDS011;3138;52.550;13.148;2023-05-07T00:12:59;27.07;;;19.17;;
6209;SDS011;3138;52.550;13.148;2023-05-07T00:15:28;29.30;;;18.67;;
6209;SDS011;3138;52.550;13.148;2023-05-07T00:17:56;26.57;;;18.23;;
6209;SDS011;3138;52.550;13.148;2023-05-07T00:20:27;25.60;;;17.50;;
6209;SDS011;3138;52.550;13.148;2023-05-07T00:22:54;21.87;;;15.43;;
6209;SDS011;3138;52.550;13.148;2023-05-07T00:25:21;25.30;;;17.27;;
6209;SDS011;3138;52.550;13.148;2023-05-07T00:27:50;26.33;;;18.10;;
6209;SDS011;3138;52.550;13.148;2023-05-07T00:30:30;28.97;;;15.33;;
6209;SDS011;3138;52.550;13.148;2023-05-07T00:32:59;22.83;;;17.00;;
6209;SDS011;3138;52.550;13.148;2023-05-07T00:35:35;26.70;;;16.90;;
6209;SDS011;3138;52.550;13.148;2023-05-07T00:38:35;21.77;;;14.63;;
6209;SDS011;3138;52.550;13.148;2023-05-07T00:41:02;26.70;;;15.87;;
6209;SDS011;3138;52.550;13.148;2023-05-07T00:43:29;25.77;;;16.27;;
6209;SDS011;3138;52.550;13.148;2023-05-07T00:46:00;21.37;;;14.10;;
6209;SDS011;3138;52.550;13.148;2023-05-07T00:48:29;37.37;;;16.03;;
6209;SDS011;3138;52.550;13.148;2023-05-07T00:50:57;25.40;;;14.87;;
6209;SDS011;3138;52.550;13.148;2023-05-07T00:53:24;23.40;;;15.37;;
6209;SDS011;3138;52.550;13.148;2023-05-07T00:55:52;22.30;;;14.80;;
6209;SDS011;3138;52.550;13.148;2023-05-07T00:58:19;21.00;;;14.43;;
6209;SDS011;3138;52.550;13.148;2023-05-07T01:00:59;27.33;;;15.97;;
6209;SDS011;3138;52.550;13.148;2023-05-07T01:03:37;21.23;;;15.17;;
6209;SDS011;3138;52.550;13.148;2023-05-07T01:06:04;25.10;;;14.83;;
6209;SDS011;3138;52.550;13.148;2023-05-07T01:08:33;27.37;;;13.53;;
6209;SDS011;3138;52.550;13.148;2023-05-07T01:11:01;19.30;;;13.47;;
6209;SDS011;3138;52.550;13.148;2023-05-07T01:13:28;17.70;;;12.60;;
6209;SDS011;3138;52.550;13.148;2023-05-07T01:15:57;23.47;;;12.50;;
6209;SDS011;3138;52.550;13.148;2023-05-07T01:18:26;19.20;;;12.40;;
6209;SDS011;3138;52.550;13.148;2023-05-07T01:21:01;17.97;;;13.00;;
6209;SDS011;3138;52.550;13.148;2023-05-07T01:23:52;15.90;;;11.77;;
6209;SDS011;3138;52.550;13.148;2023-05-07T01:26:20;16.33;;;12.20;;
6209;SDS011;3138;52.550;13.148;2023-05-07T01:28:51;16.57;;;11.00;;
6209;SDS011;3138;52.550;13.148;2023-05-07T01:31:18;15.30;;;11.57;;
6209;SDS011;3138;52.550;13.148;2023-05-07T01:33:46;20.00;;;12.53;;
6209;SDS011;3138;52.550;13.148;2023-05-07T01:36:31;23.33;;;14.37;;
6209;SDS011;3138;52.550;13.148;2023-05-07T01:39:02;19.83;;;14.13;;
6209;SDS011;3138;52.550;13.148;2023-05-07T01:41:30;18.87;;;12.60;;
6209;SDS011;3138;52.550;13.148;2023-05-07T01:43:57;20.50;;;13.00;;
6209;SDS011;3138;52.550;13.148;2023-05-07T01:46:25;19.63;;;13.23;;
6209;SDS011;3138;52.550;13.148;2023-05-07T01:48:52;21.77;;;13.43;;
6209;SDS011;3138;52.550;13.148;2023-05-07T01:51:20;19.33;;;12.67;;
6209;SDS011;3138;52.550;13.148;2023-05-07T01:53:48;19.07;;;11.43;;
6209;SDS011;3138;52.550;13.148;2023-05-07T01:56:17;15.70;;;11.80;;
6209;SDS011;3138;52.550;13.148;2023-05-07T01:58:45;13.60;;;12.10;;
6209;SDS011;3138;52.550;13.148;2023-05-07T02:01:18;16.63;;;11.97;;
6209;SDS011;3138;52.550;13.148;2023-05-07T02:03:54;17.57;;;12.23;;
6209;SDS011;3138;52.550;13.148;2023-05-07T02:06:38;20.87;;;11.00;;
6209;SDS011;3138;52.550;13.148;2023-05-07T02:09:11;18.27;;;12.53;;
6209;SDS011;3138;52.550;13.148;2023-05-07T02:11:41;16.50;;;12.03;;
6209;SDS011;3138;52.550;13.148;2023-05-07T02:14:18;16.33;;;12.77;;
6209;SDS011;3138;52.550;13.148;2023-05-07T02:16:45;22.57;;;12.23;;
6209;SDS011;3138;52.550;13.148;2023-05-07T02:19:14;16.03;;;12.97;;
6209;SDS011;3138;52.550;13.148;2023-05-07T02:21:53;18.43;;;11.77;;
6209;SDS011;3138;52.550;13.148;2023-05-07T02:24:33;19.30;;;10.60;;
6209;SDS011;3138;52.550;13.148;2023-05-07T02:27:01;12.87;;;10.60;;
6209;SDS011;3138;52.550;13.148;2023-05-07T02:29:46;16.97;;;11.80;;
6209;SDS011;3138;52.550;13.148;2023-05-07T02:32:22;22.37;;;12.00;;
6209;SDS011;3138;52.550;13.148;2023-05-07T02:34:54;21.70;;;11.93;;
6209;SDS011;3138;52.550;13.148;2023-05-07T02:37:33;13.60;;;11.53;;
6209;SDS011;3138;52.550;13.148;2023-05-07T02:40:02;23.20;;;13.43;;
6209;SDS011;3138;52.550;13.148;2023-05-07T02:46:02;21.23;;;13.00;;
6209;SDS011;3138;52.550;13.148;2023-05-07T02:48:29;23.43;;;12.93;;
6209;SDS011;3138;52.550;13.148;2023-05-07T02:54:36;25.40;;;14.13;;
6209;SDS011;3138;52.550;13.148;2023-05-07T03:03:05;22.30;;;15.73;;
6209;SDS011;3138;52.550;13.148;2023-05-07T03:05:39;25.93;;;16.10;;
6209;SDS011;3138;52.550;13.148;2023-05-07T03:08:07;21.67;;;14.87;;
6209;SDS011;3138;52.550;13.148;2023-05-07T03:10:37;23.40;;;15.43;;
6209;SDS011;3138;52.550;13.148;2023-05-07T03:13:05;21.70;;;14.40;;
6209;SDS011;3138;52.550;13.148;2023-05-07T03:15:40;17.00;;;13.90;;
6209;SDS011;3138;52.550;13.148;2023-05-07T03:18:07;21.37;;;15.07;;
6209;SDS011;3138;52.550;13.148;2023-05-07T03:20:38;21.93;;;15.40;;
6209;SDS011;3138;52.550;13.148;2023-05-07T03:23:10;19.70;;;13.57;;
6209;SDS011;3138;52.550;13.148;2023-05-07T03:25:46;25.43;;;15.63;;
6209;SDS011;3138;52.550;13.148;2023-05-07T03:28:21;21.57;;;13.83;;
6209;SDS011;3138;52.550;13.148;2023-05-07T03:30:59;23.97;;;15.10;;
6209;SDS011;3138;52.550;13.148;2023-05-07T03:33:32;18.97;;;12.47;;
6209;SDS011;3138;52.550;13.148;2023-05-07T03:36:00;20.40;;;13.90;;
6209;SDS011;3138;52.550;13.148;2023-05-07T03:38:27;18.73;;;13.50;;
6209;SDS011;3138;52.550;13.148;2023-05-07T03:41:03;22.00;;;13.73;;
6209;SDS011;3138;52.550;13.148;2023-05-07T03:43:37;42.47;;;13.73;;
6209;SDS011;3138;52.550;13.148;2023-05-07T03:49:29;25.27;;;13.20;;
6209;SDS011;3138;52.550;13.148;2023-05-07T03:51:56;16.30;;;12.27;;
6209;SDS011;3138;52.550;13.148;2023-05-07T03:54:26;18.40;;;12.23;;
6209;SDS011;3138;52.550;13.148;2023-05-07T03:56:58;19.93;;;13.10;;
6209;SDS011;3138;52.550;13.148;2023-05-07T03:59:27;15.80;;;11.10;;
6209;SDS011;3138;52.550;13.148;2023-05-07T04:01:56;16.40;;;12.50;;
6209;SDS011;3138;52.550;13.148;2023-05-07T04:04:24;19.53;;;12.67;;
6209;SDS011;3138;52.550;13.148;2023-05-07T04:07:00;19.90;;;11.20;;
6209;SDS011;3138;52.550;13.148;2023-05-07T04:09:30;11.43;;;10.23;;
6209;SDS011;3138;52.550;13.148;2023-05-07T04:12:00;16.63;;;10.70;;
6209;SDS011;3138;52.550;13.148;2023-05-07T04:14:27;17.73;;;11.73;;
6209;SDS011;3138;52.550;13.148;2023-05-07T04:17:05;17.17;;;11.43;;
6209;SDS011;3138;52.550;13.148;2023-05-07T04:19:39;15.07;;;11.00;;
6209;SDS011;3138;52.550;13.148;2023-05-07T04:22:10;14.87;;;10.40;;
6209;SDS011;3138;52.550;13.148;2023-05-07T04:24:37;16.20;;;10.73;;
6209;SDS011;3138;52.550;13.148;2023-05-07T04:27:09;18.83;;;11.13;;
6209;SDS011;3138;52.550;13.148;2023-05-07T04:29:36;16.33;;;11.17;;
6209;SDS011;3138;52.550;13.148;2023-05-07T04:32:09;11.37;;;9.50;;
6209;SDS011;3138;52.550;13.148;2023-05-07T04:34:39;22.73;;;10.40;;
6209;SDS011;3138;52.550;13.148;2023-05-07T04:37:06;14.73;;;10.70;;
6209;SDS011;3138;52.550;13.148;2023-05-07T04:39:33;14.67;;;10.70;;
6209;SDS011;3138;52.550;13.148;2023-05-07T04:42:01;15.47;;;10.30;;
6209;SDS011;3138;52.550;13.148;2023-05-07T04:44:28;14.03;;;10.37;;
6209;SDS011;3138;52.550;13.148;2023-05-07T04:46:56;13.40;;;11.33;;
6209;SDS011;3138;52.550;13.148;2023-05-07T04:49:27;11.10;;;9.50;;
6209;SDS011;3138;52.550;13.148;2023-05-07T04:51:54;12.87;;;9.80;;
6209;SDS011;3138;52.550;13.148;2023-05-07T04:54:21;18.07;;;10.13;;
6209;SDS011;3138;52.550;13.148;2023-05-07T04:56:55;14.13;;;9.90;;
6209;SDS011;3138;52.550;13.148;2023-05-07T04:59:22;13.20;;;9.73;;
6209;SDS011;3138;52.550;13.148;2023-05-07T05:01:54;13.67;;;9.13;;
6209;SDS011;3138;52.550;13.148;2023-05-07T05:04:21;11.90;;;8.93;;
6209;SDS011;3138;52.550;13.148;2023-05-07T05:06:57;17.13;;;10.17;;
6209;SDS011;3138;52.550;13.148;2023-05-07T05:09:28;12.63;;;8.80;;
6209;SDS011;3138;52.550;13.148;2023-05-07T05:12:04;19.60;;;9.83;;
6209;SDS011;3138;52.550;13.148;2023-05-07T05:14:32;14.27;;;8.93;;
6209;SDS011;3138;52.550;13.148;2023-05-07T05:17:01;13.07;;;8.50;;
6209;SDS011;3138;52.550;13.148;2023-05-07T05:19:31;10.87;;;9.20;;
6209;SDS011;3138;52.550;13.148;2023-05-07T05:22:02;12.23;;;8.03;;
6209;SDS011;3138;52.550;13.148;2023-05-07T05:24:30;8.67;;;7.87;;
6209;SDS011;3138;52.550;13.148;2023-05-07T05:26:57;11.20;;;8.50;;
6209;SDS011;3138;52.550;13.148;2023-05-07T05:29:28;13.83;;;8.70;;
6209;SDS011;3138;52.550;13.148;2023-05-07T05:31:56;14.03;;;9.00;;
6209;SDS011;3138;52.550;13.148;2023-05-07T05:34:25;12.50;;;8.40;;
6209;SDS011;3138;52.550;13.148;2023-05-07T05:36:59;11.90;;;9.30;;
6209;SDS011;3138;52.550;13.148;2023-05-07T05:39:26;13.30;;;7.90;;
6209;SDS011;3138;52.550;13.148;2023-05-07T05:41:53;14.83;;;8.67;;
6209;SDS011;3138;52.550;13.148;2023-05-07T05:44:23;10.53;;;8.03;;
6209;SDS011;3138;52.550;13.148;2023-05-07T05:46:52;11.17;;;8.03;;
6209;SDS011;3138;52.550;13.148;2023-05-07T05:49:20;10.53;;;8.30;;
6209;SDS011;3138;52.550;13.148;2023-05-07T05:51:47;13.83;;;7.37;;
6209;SDS011;3138;52.550;13.148;2023-05-07T05:54:15;10.60;;;8.53;;
6209;SDS011;3138;52.550;13.148;2023-05-07T05:56:42;7.60;;;6.90;;
6209;SDS011;3138;52.550;13.148;2023-05-07T05:59:09;14.23;;;7.47;;
6209;SDS011;3138;52.550;13.148;2023-05-07T06:01:36;8.90;;;7.73;;
6209;SDS011;3138;52.550;13.148;2023-05-07T06:04:03;8.17;;;7.33;;
6209;SDS011;3138;52.550;13.148;2023-05-07T06:06:30;9.00;;;7.97;;
6209;SDS011;3138;52.550;13.148;2023-05-07T06:08:57;8.53;;;7.40;;
6209;SDS011;3138;52.550;13.148;2023-05-07T06:11:29;9.30;;;8.03;;
6209;SDS011;3138;52.550;13.148;2023-05-07T06:13:57;10.20;;;7.30;;
6209;SDS011;3138;52.550;13.148;2023-05-07T06:16:24;9.67;;;8.20;;
6209;SDS011;3138;52.550;13.148;2023-05-07T06:18:51;12.63;;;8.23;;
6209;SDS011;3138;52.550;13.148;2023-05-07T06:21:18;12.00;;;7.90;;
6209;SDS011;3138;52.550;13.148;2023-05-07T06:23:45;9.73;;;7.70;;
6209;SDS011;3138;52.550;13.148;2023-05-07T06:26:12;12.43;;;7.93;;
6209;SDS011;3138;52.550;13.148;2023-05-07T06:28:40;11.70;;;8.30;;
6209;SDS011;3138;52.550;13.148;2023-05-07T06:31:13;9.90;;;7.20;;
6209;SDS011;3138;52.550;13.148;2023-05-07T06:33:43;8.60;;;6.00;;
6209;SDS011;3138;52.550;13.148;2023-05-07T06:36:28;10.13;;;7.20;;
6209;SDS011;3138;52.550;13.148;2023-05-07T06:38:57;13.53;;;7.63;;
6209;SDS011;3138;52.550;13.148;2023-05-07T06:41:24;10.67;;;6.43;;
6209;SDS011;3138;52.550;13.148;2023-05-07T06:43:53;15.90;;;7.30;;
6209;SDS011;3138;52.550;13.148;2023-05-07T06:46:20;7.80;;;6.30;;
6209;SDS011;3138;52.550;13.148;2023-05-07T06:48:46;13.20;;;7.20;;
6209;SDS011;3138;52.550;13.148;2023-05-07T06:51:13;7.80;;;6.83;;
6209;SDS011;3138;52.550;13.148;2023-05-07T06:53:40;13.47;;;7.83;;
6209;SDS011;3138;52.550;13.148;2023-05-07T06:56:07;11.47;;;7.57;;
6209;SDS011;3138;52.550;13.148;2023-05-07T06:58:34;12.40;;;8.53;;
6209;SDS011;3138;52.550;13.148;2023-05-07T07:01:03;8.67;;;7.17;;
6209;SDS011;3138;52.550;13.148;2023-05-07T07:03:30;7.93;;;7.17;;
6209;SDS011;3138;52.550;13.148;2023-05-07T07:05:58;12.93;;;8.40;;
6209;SDS011;3138;52.550;13.148;2023-05-07T07:08:30;9.43;;;7.90;;
6209;SDS011;3138;52.550;13.148;2023-05-07T07:10:57;11.00;;;8.50;;
6209;SDS011;3138;52.550;13.148;2023-05-07T07:13:26;15.53;;;7.30;;
6209;SDS011;3138;52.550;13.148;2023-05-07T07:15:53;7.87;;;6.73;;
6209;SDS011;3138;52.550;13.148;2023-05-07T07:18:26;10.13;;;7.93;;
6209;SDS011;3138;52.550;13.148;2023-05-07T07:20:56;9.77;;;7.37;;
6209;SDS011;3138;52.550;13.148;2023-05-07T07:23:24;10.53;;;7.80;;
6209;SDS011;3138;52.550;13.148;2023-05-07T07:25:51;9.10;;;7.03;;
6209;SDS011;3138;52.550;13.148;2023-05-07T07:28:20;8.50;;;6.80;;
6209;SDS011;3138;52.550;13.148;2023-05-07T07:31:04;15.20;;;7.37;;
6209;SDS011;3138;52.550;13.148;2023-05-07T07:33:36;11.17;;;6.80;;
6209;SDS011;3138;52.550;13.148;2023-05-07T07:36:11;9.43;;;6.43;;
6209;SDS011;3138;52.550;13.148;2023-05-07T07:38:55;11.73;;;6.90;;
6209;SDS011;3138;52.550;13.148;2023-05-07T07:41:38;7.97;;;5.63;;
6209;SDS011;3138;52.550;13.148;2023-05-07T07:44:08;9.53;;;5.60;;
6209;SDS011;3138;52.550;13.148;2023-05-07T07:46:52;6.93;;;5.87;;
6209;SDS011;3138;52.550;13.148;2023-05-07T07:49:23;13.20;;;5.97;;
6209;SDS011;3138;52.550;13.148;2023-05-07T07:52:09;7.60;;;5.40;;
6209;SDS011;3138;52.550;13.148;2023-05-07T07:54:37;13.60;;;5.00;;
6209;SDS011;3138;52.550;13.148;2023-05-07T07:57:07;5.70;;;5.10;;
6209;SDS011;3138;52.550;13.148;2023-05-07T08:00:06;8.03;;;4.30;;
6209;SDS011;3138;52.550;13.148;2023-05-07T08:02:37;6.93;;;4.63;;
6209;SDS011;3138;52.550;13.148;2023-05-07T08:05:05;5.20;;;4.70;;
6209;SDS011;3138;52.550;13.148;2023-05-07T08:07:33;9.07;;;4.60;;
6209;SDS011;3138;52.550;13.148;2023-05-07T08:10:08;6.07;;;4.47;;
6209;SDS011;3138;52.550;13.148;2023-05-07T08:12:36;5.67;;;4.30;;
6209;SDS011;3138;52.550;13.148;2023-05-07T08:15:05;5.33;;;4.83;;
6209;SDS011;3138;52.550;13.148;2023-05-07T08:17:54;7.53;;;4.07;;
6209;SDS011;3138;52.550;13.148;2023-05-07T08:20:27;4.40;;;4.00;;
6209;SDS011;3138;52.550;13.148;2023-05-07T08:22:57;14.03;;;4.50;;
6209;SDS011;3138;52.550;13.148;2023-05-07T08:25:34;13.73;;;4.10;;
6209;SDS011;3138;52.550;13.148;2023-05-07T08:28:27;4.43;;;4.00;;
6209;SDS011;3138;52.550;13.148;2023-05-07T08:34:09;3.80;;;3.40;;
6209;SDS011;3138;52.550;13.148;2023-05-07T08:42:40;3.00;;;2.80;;
6209;SDS011;3138;52.550;13.148;2023-05-07T08:45:20;7.27;;;3.30;;
6209;SDS011;3138;52.550;13.148;2023-05-07T08:47:54;7.57;;;3.97;;
6209;SDS011;3138;52.550;13.148;2023-05-07T08:50:35;8.00;;;4.87;;
6209;SDS011;3138;52.550;13.148;2023-05-07T08:53:37;4.50;;;3.90;;
6209;SDS011;3138;52.550;13.148;2023-05-07T08:56:11;3.10;;;2.90;;
6209;SDS011;3138;52.550;13.148;2023-05-07T08:58:56;4.03;;;3.17;;
6209;SDS011;3138;52.550;13.148;2023-05-07T09:01:51;3.57;;;3.20;;
6209;SDS011;3138;52.550;13.148;2023-05-07T09:04:28;5.50;;;3.40;;
6209;SDS011;3138;52.550;13.148;2023-05-07T09:07:00;8.00;;;3.17;;
6209;SDS011;3138;52.550;13.148;2023-05-07T09:10:10;3.50;;;3.03;;
6209;SDS011;3138;52.550;13.148;2023-05-07T09:12:54;4.77;;;3.13;;
6209;SDS011;3138;52.550;13.148;2023-05-07T09:18:31;3.10;;;2.17;;
6209;SDS011;3138;52.550;13.148;2023-05-07T09:20:59;8.83;;;3.67;;
6209;SDS011;3138;52.550;13.148;2023-05-07T09:23:30;3.83;;;3.50;;
6209;SDS011;3138;52.550;13.148;2023-05-07T09:26:11;4.30;;;3.57;;
6209;SDS011;3138;52.550;13.148;2023-05-07T09:28:42;3.50;;;3.30;;
6209;SDS011;3138;52.550;13.148;2023-05-07T09:31:29;8.20;;;3.00;;
6209;SDS011;3138;52.550;13.148;2023-05-07T09:34:19;3.43;;;3.00;;
6209;SDS011;3138;52.550;13.148;2023-05-07T09:36:46;3.00;;;2.77;;
6209;SDS011;3138;52.550;13.148;2023-05-07T09:39:13;3.03;;;2.83;;
6209;SDS011;3138;52.550;13.148;2023-05-07T09:41:58;6.23;;;3.03;;
6209;SDS011;3138;52.550;13.148;2023-05-07T09:44:42;3.57;;;3.27;;
6209;SDS011;3138;52.550;13.148;2023-05-07T09:47:16;3.57;;;3.17;;
6209;SDS011;3138;52.550;13.148;2023-05-07T09:53:47;12.50;;;3.30;;
6209;SDS011;3138;52.550;13.148;2023-05-07T09:56:20;6.80;;;3.73;;
6209;SDS011;3138;52.550;13.148;2023-05-07T09:58:52;5.70;;;3.50;;
6209;SDS011;3138;52.550;13.148;2023-05-07T10:01:20;6.67;;;3.70;;
6209;SDS011;3138;52.550;13.148;2023-05-07T10:03:48;3.27;;;2.80;;
6209;SDS011;3138;52.550;13.148;2023-05-07T10:06:16;5.70;;;4.10;;
6209;SDS011;3138;52.550;13.148;2023-05-07T10:08:43;3.90;;;3.57;;
6209;SDS011;3138;52.550;13.148;2023-05-07T10:11:11;4.80;;;3.10;;
6209;SDS011;3138;52.550;13.148;2023-05-07T10:13:38;5.10;;;3.50;;
6209;SDS011;3138;52.550;13.148;2023-05-07T10:16:08;4.13;;;3.83;;
6209;SDS011;3138;52.550;13.148;2023-05-07T10:18:35;4.37;;;3.20;;
6209;SDS011;3138;52.550;13.148;2023-05-07T10:21:06;3.80;;;3.30;;
6209;SDS011;3138;52.550;13.148;2023-05-07T10:23:35;9.80;;;4.10;;
6209;SDS011;3138;52.550;13.148;2023-05-07T10:26:03;4.07;;;3.67;;
6209;SDS011;3138;52.550;13.148;2023-05-07T10:28:34;4.00;;;3.23;;
6209;SDS011;3138;52.550;13.148;2023-05-07T10:31:14;4.83;;;3.10;;
6209;SDS011;3138;52.550;13.148;2023-05-07T10:33:53;4.27;;;2.80;;
6209;SDS011;3138;52.550;13.148;2023-05-07T10:36:22;3.73;;;3.43;;
6209;SDS011;3138;52.550;13.148;2023-05-07T10:38:51;5.37;;;3.10;;
6209;SDS011;3138;52.550;13.148;2023-05-07T10:41:18;4.60;;;3.50;;
6209;SDS011;3138;52.550;13.148;2023-05-07T10:43:46;3.57;;;2.53;;
6209;SDS011;3138;52.550;13.148;2023-05-07T10:46:15;9.87;;;3.00;;
6209;SDS011;3138;52.550;13.148;2023-05-07T10:51:36;4.43;;;3.23;;
6209;SDS011;3138;52.550;13.148;2023-05-07T10:54:22;3.20;;;2.90;;
6209;SDS011;3138;52.550;13.148;2023-05-07T10:56:49;5.73;;;3.00;;
6209;SDS011;3138;52.550;13.148;2023-05-07T10:59:29;2.87;;;2.67;;
6209;SDS011;3138;52.550;13.148;2023-05-07T11:02:00;4.53;;;2.87;;
6209;SDS011;3138;52.550;13.148;2023-05-07T11:04:29;4.00;;;2.50;;
6209;SDS011;3138;52.550;13.148;2023-05-07T11:09:58;7.17;;;2.60;;
6209;SDS011;3138;52.550;13.148;2023-05-07T11:15:34;2.13;;;2.00;;
6209;SDS011;3138;52.550;13.148;2023-05-07T11:18:08;4.67;;;2.20;;
6209;SDS011;3138;52.550;13.148;2023-05-07T11:26:23;7.60;;;2.70;;
6209;SDS011;3138;52.550;13.148;2023-05-07T11:28:51;2.33;;;2.13;;
6209;SDS011;3138;52.550;13.148;2023-05-07T11:31:23;2.53;;;2.00;;
6209;SDS011;3138;52.550;13.148;2023-05-07T11:33:53;6.47;;;2.47;;
6209;SDS011;3138;52.550;13.148;2023-05-07T11:36:21;2.57;;;2.27;;
6209;SDS011;3138;52.550;13.148;2023-05-07T11:38:49;2.87;;;2.53;;
6209;SDS011;3138;52.550;13.148;2023-05-07T11:41:16;3.03;;;2.10;;
6209;SDS011;3138;52.550;13.148;2023-05-07T11:43:57;2.00;;;1.80;;
6209;SDS011;3138;52.550;13.148;2023-05-07T11:46:25;2.13;;;1.87;;
6209;SDS011;3138;52.550;13.148;2023-05-07T11:48:54;2.50;;;2.40;;
6209;SDS011;3138;52.550;13.148;2023-05-07T11:51:21;2.40;;;2.30;;
6209;SDS011;3138;52.550;13.148;2023-05-07T11:53:51;2.27;;;2.10;;
6209;SDS011;3138;52.550;13.148;2023-05-07T11:56:19;3.83;;;2.00;;
6209;SDS011;3138;52.550;13.148;2023-05-07T11:58:46;2.30;;;1.93;;
6209;SDS011;3138;52.550;13.148;2023-05-07T12:01:16;1.83;;;1.73;;
6209;SDS011;3138;52.550;13.148;2023-05-07T12:03:43;2.80;;;1.97;;
6209;SDS011;3138;52.550;13.148;2023-05-07T12:06:13;2.03;;;1.90;;
6209;SDS011;3138;52.550;13.148;2023-05-07T12:08:42;3.50;;;2.43;;
6209;SDS011;3138;52.550;13.148;2023-05-07T12:11:12;2.60;;;2.40;;
6209;SDS011;3138;52.550;13.148;2023-05-07T12:13:42;3.17;;;2.20;;
6209;SDS011;3138;52.550;13.148;2023-05-07T12:16:09;5.10;;;2.80;;
6209;SDS011;3138;52.550;13.148;2023-05-07T12:18:38;2.40;;;2.27;;
6209;SDS011;3138;52.550;13.148;2023-05-07T12:21:06;3.80;;;2.80;;
6209;SDS011;3138;52.550;13.148;2023-05-07T12:23:35;2.90;;;2.33;;
6209;SDS011;3138;52.550;13.148;2023-05-07T12:26:03;2.03;;;1.93;;
6209;SDS011;3138;52.550;13.148;2023-05-07T12:28:31;3.40;;;2.17;;
6209;SDS011;3138;52.550;13.148;2023-05-07T12:31:03;2.93;;;2.33;;
6209;SDS011;3138;52.550;13.148;2023-05-07T12:33:30;2.00;;;1.73;;
6209;SDS011;3138;52.550;13.148;2023-05-07T12:35:58;5.10;;;2.10;;
6209;SDS011;3138;52.550;13.148;2023-05-07T12:38:32;4.87;;;2.83;;
6209;SDS011;3138;52.550;13.148;2023-05-07T12:41:03;3.07;;;2.50;;
6209;SDS011;3138;52.550;13.148;2023-05-07T12:43:30;3.30;;;2.27;;
6209;SDS011;3138;52.550;13.148;2023-05-07T12:45:58;2.93;;;2.13;;
6209;SDS011;3138;52.550;13.148;2023-05-07T12:48:27;35.37;;;2.63;;
6209;SDS011;3138;52.550;13.148;2023-05-07T12:50:54;2.50;;;2.30;;
6209;SDS011;3138;52.550;13.148;2023-05-07T12:53:22;3.13;;;2.43;;
6209;SDS011;3138;52.550;13.148;2023-05-07T12:55:52;4.13;;;2.50;;
6209;SDS011;3138;52.550;13.148;2023-05-07T12:58:21;2.60;;;2.40;;
6209;SDS011;3138;52.550;13.148;2023-05-07T13:00:51;7.97;;;2.47;;
6209;SDS011;3138;52.550;13.148;2023-05-07T13:03:21;2.50;;;1.73;;
6209;SDS011;3138;52.550;13.148;2023-05-07T13:05:50;3.80;;;2.10;;
6209;SDS011;3138;52.550;13.148;2023-05-07T13:08:27;2.20;;;1.97;;
6209;SDS011;3138;52.550;13.148;2023-05-07T13:10:56;1.97;;;1.83;;
6209;SDS011;3138;52.550;13.148;2023-05-07T13:13:24;2.13;;;2.03;;
6209;SDS011;3138;52.550;13.148;2023-05-07T13:15:51;2.20;;;2.00;;
6209;SDS011;3138;52.550;13.148;2023-05-07T13:18:18;1.87;;;1.67;;
6209;SDS011;3138;52.550;13.148;2023-05-07T13:20:45;2.37;;;2.07;;
6209;SDS011;3138;52.550;13.148;2023-05-07T13:23:12;6.83;;;2.03;;
6209;SDS011;3138;52.550;13.148;2023-05-07T13:25:39;3.43;;;1.60;;
6209;SDS011;3138;52.550;13.148;2023-05-07T13:28:07;5.57;;;1.90;;
6209;SDS011;3138;52.550;13.148;2023-05-07T13:30:34;3.53;;;1.97;;
6209;SDS011;3138;52.550;13.148;2023-05-07T13:33:01;35.30;;;22.97;;
6209;SDS011;3138;52.550;13.148;2023-05-07T13:35:28;3.00;;;2.40;;
6209;SDS011;3138;52.550;13.148;2023-05-07T13:37:54;1.90;;;1.80;;
6209;SDS011;3138;52.550;13.148;2023-05-07T13:40:21;4.47;;;2.23;;
6209;SDS011;3138;52.550;13.148;2023-05-07T13:42:48;3.77;;;2.33;;
6209;SDS011;3138;52.550;13.148;2023-05-07T13:45:17;17.63;;;1.87;;
6209;SDS011;3138;52.550;13.148;2023-05-07T13:47:44;3.00;;;2.27;;
6209;SDS011;3138;52.550;13.148;2023-05-07T13:50:14;2.10;;;1.90;;
6209;SDS011;3138;52.550;13.148;2023-05-07T13:52:42;1.90;;;1.80;;
6209;SDS011;3138;52.550;13.148;2023-05-07T13:55:12;5.10;;;2.67;;
6209;SDS011;3138;52.550;13.148;2023-05-07T13:57:39;1.67;;;1.60;;
6209;SDS011;3138;52.550;13.148;2023-05-07T14:00:06;3.13;;;1.90;;
6209;SDS011;3138;52.550;13.148;2023-05-07T14:02:35;4.47;;;1.90;;
6209;SDS011;3138;52.550;13.148;2023-05-07T14:05:02;2.73;;;1.27;;
6209;SDS011;3138;52.550;13.148;2023-05-07T14:07:31;2.40;;;1.70;;
6209;SDS011;3138;52.550;13.148;2023-05-07T14:09:57;1.90;;;1.80;;
6209;SDS011;3138;52.550;13.148;2023-05-07T14:12:24;4.40;;;1.73;;
6209;SDS011;3138;52.550;13.148;2023-05-07T14:14:51;4.77;;;1.90;;
6209;SDS011;3138;52.550;13.148;2023-05-07T14:17:18;2.47;;;1.20;;
6209;SDS011;3138;52.550;13.148;2023-05-07T14:19:49;2.43;;;1.80;;
6209;SDS011;3138;52.550;13.148;2023-05-07T14:22:16;1.60;;;1.50;;
6209;SDS011;3138;52.550;13.148;2023-05-07T14:24:43;1.60;;;1.50;;
6209;SDS011;3138;52.550;13.148;2023-05-07T14:27:09;3.50;;;1.60;;
6209;SDS011;3138;52.550;13.148;2023-05-07T14:29:36;3.33;;;1.70;;
6209;SDS011;3138;52.550;13.148;2023-05-07T14:32:03;4.20;;;1.20;;
6209;SDS011;3138;52.550;13.148;2023-05-07T14:34:31;2.47;;;1.30;;
6209;SDS011;3138;52.550;13.148;2023-05-07T14:36:59;1.83;;;1.73;;
6209;SDS011;3138;52.550;13.148;2023-05-07T14:39:26;1.60;;;1.50;;
6209;SDS011;3138;52.550;13.148;2023-05-07T14:41:53;1.80;;;1.70;;
6209;SDS011;3138;52.550;13.148;2023-05-07T14:44:21;4.23;;;2.20;;
6209;SDS011;3138;52.550;13.148;2023-05-07T14:46:48;3.33;;;1.80;;
6209;SDS011;3138;52.550;13.148;2023-05-07T14:49:15;1.67;;;1.57;;
6209;SDS011;3138;52.550;13.148;2023-05-07T14:51:43;3.50;;;2.13;;
6209;SDS011;3138;52.550;13.148;2023-05-07T14:54:11;2.70;;;2.23;;
6209;SDS011;3138;52.550;13.148;2023-05-07T14:56:38;2.53;;;2.30;;
6209;SDS011;3138;52.550;13.148;2023-05-07T14:59:06;2.03;;;1.83;;
6209;SDS011;3138;52.550;13.148;2023-05-07T15:01:34;2.47;;;2.20;;
6209;SDS011;3138;52.550;13.148;2023-05-07T15:04:02;2.20;;;2.03;;
6209;SDS011;3138;52.550;13.148;2023-05-07T15:06:29;3.60;;;2.30;;
6209;SDS011;3138;52.550;13.148;2023-05-07T15:08:57;10.87;;;2.80;;
6209;SDS011;3138;52.550;13.148;2023-05-07T15:11:25;4.50;;;2.07;;
6209;SDS011;3138;52.550;13.148;2023-05-07T15:13:52;6.50;;;2.27;;
6209;SDS011;3138;52.550;13.148;2023-05-07T15:16:18;5.90;;;2.80;;
6209;SDS011;3138;52.550;13.148;2023-05-07T15:18:45;12.17;;;2.03;;
6209;SDS011;3138;52.550;13.148;2023-05-07T15:21:12;2.20;;;2.10;;
6209;SDS011;3138;52.550;13.148;2023-05-07T15:23:39;3.50;;;2.20;;
6209;SDS011;3138;52.550;13.148;2023-05-07T15:26:07;2.93;;;2.30;;
6209;SDS011;3138;52.550;13.148;2023-05-07T15:28:35;1.63;;;1.53;;
6209;SDS011;3138;52.550;13.148;2023-05-07T15:31:03;3.40;;;2.33;;
6209;SDS011;3138;52.550;13.148;2023-05-07T15:33:30;11.73;;;4.57;;
6209;SDS011;3138;52.550;13.148;2023-05-07T15:35:57;1.80;;;1.70;;
6209;SDS011;3138;52.550;13.148;2023-05-07T15:38:24;10.50;;;2.33;;
6209;SDS011;3138;52.550;13.148;2023-05-07T15:40:51;8.67;;;2.03;;
6209;SDS011;3138;52.550;13.148;2023-05-07T15:43:19;4.90;;;2.50;;
6209;SDS011;3138;52.550;13.148;2023-05-07T15:45:48;2.90;;;1.53;;
6209;SDS011;3138;52.550;13.148;2023-05-07T15:48:14;3.30;;;2.20;;
6209;SDS011;3138;52.550;13.148;2023-05-07T15:50:41;2.20;;;1.90;;
6209;SDS011;3138;52.550;13.148;2023-05-07T15:53:08;2.83;;;2.17;;
6209;SDS011;3138;52.550;13.148;2023-05-07T15:55:37;3.30;;;2.10;;
6209;SDS011;3138;52.550;13.148;2023-05-07T15:58:07;3.77;;;2.57;;